Latest Weather Observations for Stawell

IDV60801

Issued at 10:52 am EST Wednesday 28 September 2022 (issued every 10 minutes, with the page automatically refreshed every 10 minutes)

About weather observations | Map of weather stations | Latest weather observations for VIC | Other Formats
Station Details ID: 079105 Name: STAWELL AERODROME Lat: -37.07 Lon: 142.74 Height: 235.36 m
Data from the previous 72 hours. | See also: Recent months at Stawell
Date/Time
EST
Temp
°C
App
Temp
°C
Dew
Point
°C
Rel
Hum
%
Delta-T
°C
Wind Press
QNH
hPa
Press
MSL
hPa
Rain since
9am
mm
Dir  Spd
km/h
Gust
km/h
Spd
kts
Gust
kts
28/10:30am 12.8 7.3 9.1 78 1.9 S 28 37 15 20 1020.3 1020.4 0.0
28/10:00am 12.6 6.3 9.1 79 1.8 S 32 44 17 24 1020.0 1020.1 0.0
28/09:30am 12.9 7.2 9.9 82 1.6 S 30 39 16 21 1019.8 1020.0 0.0
28/09:00am 12.0 7.0 9.6 85 1.2 S 26 37 14 20 1019.8 1020.0 10.0
28/08:30am 11.4 7.1 9.3 87 1.1 S 22 39 12 21 1019.7 1019.9 10.0
28/08:00am 11.1 6.3 9.0 87 1.1 S 24 39 13 21 1019.5 1019.7 10.0
28/07:35am 10.9 5.3 8.8 87 1.1 S 28 46 15 25 1018.9 1019.0 10.0
28/07:30am 10.8 5.2 8.7 87 1.0 S 28 43 15 23 1018.8 1018.9 10.0
28/07:11am 10.7 5.1 8.6 87 1.0 S 28 48 15 26 1018.6 1018.7 10.0
28/07:00am 10.7 5.1 8.6 87 1.0 S 28 43 15 23 1018.5 1018.6 10.0
28/06:30am 10.4 6.3 8.7 89 0.8 SSW 20 33 11 18 1018.3 1018.4 10.0
28/06:00am 10.1 6.2 8.5 90 0.8 S 19 28 10 15 1017.9 1018.0 10.0
28/05:30am 10.4 5.2 8.8 90 0.8 S 26 41 14 22 1017.3 1017.4 10.0
28/05:13am 10.5 4.9 8.6 88 0.9 S 28 46 15 25 1016.8 1016.9 10.0
28/05:00am 10.4 4.0 8.7 89 0.8 S 32 48 17 26 1016.6 1016.7 10.0
28/04:31am 10.4 4.4 8.7 89 0.8 S 30 48 16 26 1016.3 1016.4 10.0
28/04:30am 10.4 4.0 8.7 89 0.8 S 32 48 17 26 1016.3 1016.4 10.0
28/04:06am 10.6 4.1 8.9 89 0.9 S 33 52 18 28 1016.3 1016.4 10.0
28/04:00am 10.6 3.7 8.9 89 0.9 S 35 48 19 26 1016.2 1016.3 10.0
28/03:30am 10.7 4.2 9.0 89 0.9 S 33 48 18 26 1015.8 1015.9 10.0
28/03:00am 10.7 4.8 9.0 89 0.9 S 30 46 16 25 1015.8 1015.9 10.0
28/02:42am 10.8 5.3 9.2 90 0.8 S 28 50 15 27 1015.8 1015.9 10.0
28/02:30am 10.8 4.5 9.1 89 0.9 S 32 46 17 25 1015.8 1015.9 10.0
28/02:07am 10.8 4.0 9.2 90 0.8 S 35 54 19 29 1015.8 1015.9 10.0
28/02:00am 10.7 4.2 9.1 90 0.8 S 33 48 18 26 1015.9 1016.0 10.0
28/01:30am 10.8 5.3 9.1 89 0.9 S 28 39 15 21 1016.1 1016.2 10.0
28/01:14am 10.8 4.9 9.1 89 0.9 S 30 52 16 28 1016.1 1016.2 10.0
28/01:00am 10.9 5.8 9.2 89 0.9 S 26 41 14 22 1016.1 1016.2 10.0
28/12:30am 11.0 5.9 9.3 89 0.9 S 26 37 14 20 1016.1 1016.2 10.0
28/12:00am 11.0 5.2 9.4 90 0.8 S 30 44 16 24 1016.2 1016.3 10.0
 
Date/Time
EST
Temp
°C
App
Temp
°C
Dew
Point
°C
Rel
Hum
%
Delta-T
°C
Wind Press
QNH
hPa
Press
MSL
hPa
Rain since
9am
mm
Dir  Spd
km/h
Gust
km/h
Spd
kts
Gust
kts
27/11:48pm 11.0 5.6 9.6 91 0.7 S 28 46 15 25 1016.0 1016.1 10.0
27/11:30pm 11.1 6.2 10.0 93 0.6 S 26 41 14 22 1016.1 1016.2 10.0
27/11:00pm 11.4 6.5 10.1 92 0.7 S 26 39 14 21 1015.9 1016.0 10.0
27/10:30pm 11.2 6.8 10.4 95 0.4 S 24 35 13 19 1015.8 1015.9 10.0
27/10:00pm 11.2 7.3 10.9 98 0.2 S 22 39 12 21 1015.5 1015.5 10.0
27/09:30pm 11.5 7.3 11.0 97 0.3 S 24 39 13 21 1015.3 1015.4 9.8
27/09:00pm 11.7 7.1 11.1 96 0.3 S 26 39 14 21 1015.2 1015.3 9.8
27/08:30pm 11.9 8.1 11.0 94 0.5 S 22 35 12 19 1015.1 1015.2 9.8
27/08:00pm 12.1 7.0 10.5 90 0.8 S 28 43 15 23 1014.7 1014.8 9.8
27/07:59pm 12.1 7.0 10.5 90 0.8 S 28 43 15 23 1014.7 1014.8 9.8
27/07:30pm 12.1 9.2 11.0 93 0.6 SSW 17 32 9 17 1014.3 1014.4 9.8
27/07:00pm 12.1 10.0 11.2 94 0.5 SSW 13 22 7 12 1014.2 1014.3 9.8
27/06:30pm 12.0 9.2 11.2 95 0.4 S 17 30 9 16 1013.8 1013.9 9.8
27/06:00pm 11.9 9.2 11.7 99 0.1 SSW 17 26 9 14 1013.6 1013.7 9.8
27/05:30pm 12.1 9.1 11.8 98 0.2 S 19 28 10 15 1013.1 1013.2 9.8
27/05:00pm 12.7 8.5 11.1 90 0.9 S 24 35 13 19 1012.8 1012.9 7.6
27/04:30pm 13.0 9.2 11.2 89 1.0 S 22 32 12 17 1012.4 1012.5 7.6
27/04:00pm 12.4 8.7 11.6 95 0.4 S 22 30 12 16 1012.2 1012.3 7.6
27/03:30pm 12.2 8.0 11.1 93 0.6 S 24 37 13 20 1012.1 1012.2 7.4
27/03:00pm 12.4 9.8 11.9 97 0.3 S 17 28 9 15 1012.0 1012.1 6.8
27/02:30pm 11.8 9.1 11.6 99 0.1 SSW 17 30 9 16 1012.1 1012.2 6.2
27/02:00pm 11.6 8.4 11.1 97 0.3 SSW 19 28 10 15 1012.1 1012.2 4.8
27/01:30pm 13.3 9.6 10.3 82 1.6 SSW 20 33 11 18 1012.0 1012.1 3.4
27/01:00pm 13.9 10.2 11.4 85 1.3 SSW 22 35 12 19 1012.2 1012.3 3.4
27/12:30pm 13.0 9.3 11.4 90 0.9 SSW 22 33 12 18 1012.6 1012.7 3.4
27/12:00pm 11.4 8.9 11.1 98 0.2 SSW 15 22 8 12 1013.0 1013.1 3.4
27/11:30am 11.5 8.7 11.2 98 0.2 SSW 17 28 9 15 1013.1 1013.2 3.4
27/11:00am 10.5 7.8 10.3 99 0.1 SSW 15 26 8 14 1013.3 1013.4 3.4
27/10:30am 10.0 6.8 9.9 99 0.1 SW 17 24 9 13 1013.3 1013.4 3.4
27/10:00am 10.0 6.2 9.7 98 0.2 SSW 20 30 11 16 1013.5 1013.6 2.6
27/09:30am 9.9 7.0 9.8 99 0.1 SSW 15 24 8 13 1013.5 1013.6 1.6
27/09:00am 10.0 6.7 9.5 97 0.3 SSW 17 26 9 14 1013.3 1013.4 6.4
27/08:30am 10.3 7.4 9.7 96 0.3 SSW 15 24 8 13 1013.1 1013.2 6.0
27/08:00am 9.6 7.8 9.3 98 0.2 S 9 15 5 8 1012.9 1013.0 6.0
27/07:30am 9.3 5.7 8.5 95 0.4 SSW 17 22 9 12 1012.6 1012.7 5.6
27/07:00am 9.5 6.7 8.4 93 0.5 SSW 13 20 7 11 1012.5 1012.6 5.6
27/06:30am 9.2 7.1 8.1 93 0.5 WSW 9 20 5 11 1012.1 1012.2 5.6
27/06:00am 9.4 7.0 8.5 94 0.4 S 11 17 6 9 1011.9 1011.9 5.6
27/05:30am 9.3 6.1 8.5 95 0.4 S 15 22 8 12 1011.8 1011.8 5.6
27/05:00am 9.3 6.3 9.2 99 0.0 S 15 19 8 10 1011.7 1011.7 5.6
27/04:30am 9.3 7.1 9.2 99 0.0 S 11 19 6 10 1011.7 1011.7 5.6
27/04:00am 9.4 7.2 9.3 99 0.1 SSW 11 17 6 9 1011.8 1011.8 5.6
27/03:30am 9.6 8.2 9.5 99 0.1 SSW 7 11 4 6 1011.9 1011.9 5.4
27/03:00am 9.8 7.9 9.2 96 0.3 SW 9 13 5 7 1011.9 1011.9 5.0
27/02:30am 10.3 9.0 9.1 92 0.6 S 6 11 3 6 1012.1 1012.2 4.6
27/02:00am 10.2 6.8 9.0 92 0.6 SSE 17 22 9 12 1012.0 1012.1 4.6
27/01:30am 10.1 6.7 9.2 94 0.5 S 17 22 9 12 1012.4 1012.5 4.6
27/01:00am 10.3 7.7 9.5 95 0.4 S 13 17 7 9 1012.8 1012.9 4.4
27/12:30am 10.4 8.3 9.8 96 0.3 S 11 19 6 10 1013.0 1013.1 4.4
27/12:00am 10.6 10.8 10.4 99 0.1 CALM 0 0 0 0 1013.1 1013.2 4.4
 
Date/Time
EST
Temp
°C
App
Temp
°C
Dew
Point
°C
Rel
Hum
%
Delta-T
°C
Wind Press
QNH
hPa
Press
MSL
hPa
Rain since
9am
mm
Dir  Spd
km/h
Gust
km/h
Spd
kts
Gust
kts
26/11:30pm 10.5 9.5 10.3 99 0.1 SE 6 13 3 7 1013.1 1013.2 4.4
26/11:00pm 10.4 10.1 10.2 99 0.1 ENE 2 7 1 4 1013.4 1013.5 4.4
26/10:30pm 10.5 9.3 10.3 99 0.1 SE 7 9 4 5 1013.2 1013.3 4.4
26/10:00pm 10.8 11.0 10.6 99 0.1 CALM 0 0 0 0 1013.5 1013.6 4.4
26/09:30pm 10.8 9.9 10.6 99 0.1 SE 6 7 3 4 1013.4 1013.5 4.2
26/09:00pm 10.9 9.1 10.9 100 0.0 S 11 22 6 12 1013.5 1013.6 4.2
26/08:30pm 11.5 10.8 11.5 100 0.0 SSW 6 11 3 6 1013.4 1013.5 4.0
26/08:00pm 11.5 10.8 11.5 100 0.0 N 6 9 3 5 1013.1 1013.2 3.8
26/07:30pm 11.6 10.8 11.6 100 0.0 NNE 7 9 4 5 1012.8 1012.9 3.8
26/07:00pm 11.6 11.0 11.6 100 0.0 NE 6 11 3 6 1012.7 1012.8 3.8
26/06:30pm 11.7 11.0 11.5 99 0.1 NW 6 9 3 5 1012.6 1012.7 3.4
26/06:00pm 11.8 11.0 11.6 99 0.1 NNE 7 9 4 5 1012.4 1012.5 1.6
26/05:30pm 12.0 10.9 11.8 99 0.1 NE 9 17 5 9 1012.2 1012.3 1.0
26/05:00pm 12.0 10.9 11.8 99 0.1 NNE 9 11 5 6 1012.0 1012.1 0.6
26/04:30pm 11.8 10.2 11.6 99 0.1 NE 11 17 6 9 1012.0 1012.1 0.6
26/04:00pm 11.8 10.6 11.6 99 0.1 NE 9 13 5 7 1012.1 1012.2 0.6
26/03:30pm 12.0 10.5 11.8 99 0.1 NE 11 15 6 8 1012.4 1012.5 0.6
26/03:00pm 11.8 10.6 11.6 99 0.1 NNE 9 13 5 7 1012.6 1012.7 0.6
26/02:30pm 12.0 10.9 11.8 99 0.1 NNE 9 11 5 6 1012.9 1013.0 0.6
26/02:00pm 12.2 10.1 11.1 93 0.6 NNE 13 17 7 9 1013.1 1013.2 0.4
26/01:30pm 12.5 11.0 10.7 89 0.9 NE 9 11 5 6 1013.2 1013.3 0.0
26/01:00pm 12.8 10.8 10.2 84 1.4 NE 11 15 6 8 1013.5 1013.6 0.0
26/12:30pm 12.9 10.5 10.1 83 1.5 NE 13 19 7 10 1013.6 1013.7 0.0
26/12:00pm 13.2 10.4 10.0 81 1.7 NNE 15 20 8 11 1013.8 1013.9 0.0
26/11:30am 13.8 11.4 10.0 78 2.0 NE 13 19 7 10 1014.1 1014.2 0.0
26/11:00am 13.2 10.4 10.0 81 1.7 N 15 20 8 11 1014.4 1014.5 0.0
26/10:30am 13.0 10.6 10.0 82 1.6 NNE 13 19 7 10 1014.6 1014.7 0.0
26/10:00am 12.4 9.9 9.6 83 1.4 NE 13 19 7 10 1014.7 1014.8 0.0
26/09:30am 12.0 9.8 9.4 84 1.3 NE 11 15 6 8 1014.8 1014.9 0.0
26/09:00am 11.4 9.7 9.8 90 0.8 ENE 9 11 5 6 1015.0 1015.1 2.6
26/08:30am 11.1 9.8 10.0 93 0.6 ENE 7 11 4 6 1015.2 1015.3 2.6
26/08:00am 10.8 9.2 10.2 96 0.3 ENE 9 13 5 7 1015.1 1015.2 2.6
26/07:30am 10.7 9.5 10.2 97 0.3 ENE 7 9 4 5 1015.2 1015.3 2.6
26/07:00am 10.6 9.5 10.1 97 0.3 ENE 6 7 3 4 1015.2 1015.3 2.6
26/06:30am 10.6 10.4 10.3 98 0.2 NE 2 7 1 4 1014.7 1014.8 2.6
26/06:00am 10.5 9.5 10.3 99 0.1 ENE 6 9 3 5 1014.8 1014.9 2.6
26/05:30am 10.4 9.2 10.2 99 0.1 NE 7 11 4 6 1014.6 1014.7 2.6
26/05:00am 10.6 9.6 10.4 99 0.1 E 6 7 3 4 1014.6 1014.7 2.6
26/04:30am 10.6 9.6 10.4 99 0.1 ENE 6 7 3 4 1014.6 1014.7 2.6
26/04:00am 10.7 9.8 10.5 99 0.1 ENE 6 7 3 4 1014.5 1014.6 2.6
26/03:30am 10.6 9.4 10.4 99 0.1 ESE 7 9 4 5 1014.3 1014.4 2.6
26/03:00am 10.7 9.2 10.5 99 0.1 ESE 9 11 5 6 1014.5 1014.6 2.6
26/02:30am 10.8 9.7 10.6 99 0.1 ESE 7 9 4 5 1014.9 1015.0 2.4
26/02:00am 11.0 9.6 10.8 99 0.1 E 9 11 5 6 1015.6 1015.6 2.2
26/01:30am 11.2 10.4 11.0 99 0.1 E 6 7 3 4 1016.1 1016.2 2.2
26/01:00am 11.2 10.8 11.0 99 0.1 ENE 4 7 2 4 1016.4 1016.5 2.0
26/12:30am 11.3 10.5 11.1 99 0.1 E 6 7 3 4 1016.5 1016.6 1.8
26/12:00am 11.3 10.5 11.1 99 0.1 E 6 6 3 3 1016.7 1016.8 1.8
 
Date/Time
EST
Temp
°C
App
Temp
°C
Dew
Point
°C
Rel
Hum
%
Delta-T
°C
Wind Press
QNH
hPa
Press
MSL
hPa
Rain since
9am
mm
Dir  Spd
km/h
Gust
km/h
Spd
kts
Gust
kts
25/11:30pm 11.4 10.6 10.9 97 0.3 ENE 6 7 3 4 1016.6 1016.7 1.8
25/11:00pm 11.4 10.5 10.6 95 0.4 NNW 6 9 3 5 1016.9 1017.0 1.6
25/10:30pm 11.4 10.2 10.3 93 0.6 WNW 7 9 4 5 1017.1 1017.2 1.2
25/10:00pm 12.2 10.8 9.6 84 1.3 N 7 9 4 5 1016.8 1016.9 0.4
25/09:30pm 13.0 11.4 8.9 76 2.1 NE 7 11 4 6 1016.0 1016.1 0.0
25/09:00pm 13.7 11.2 8.1 69 2.8 NNE 11 15 6 8 1016.1 1016.2 0.0
25/08:30pm 14.0 11.8 8.0 67 3.0 NNE 9 13 5 7 1016.1 1016.2 0.0
25/08:00pm 14.1 12.4 8.3 68 2.9 NNE 7 9 4 5 1016.0 1016.1 0.0
25/07:30pm 14.4 12.3 8.1 66 3.2 NNE 9 13 5 7 1015.7 1015.8 0.0
25/07:00pm 14.7 12.8 7.5 62 3.6 NNE 7 11 4 6 1015.2 1015.3 0.0
25/06:30pm 15.2 13.2 7.0 58 4.1 N 7 9 4 5 1014.8 1014.9 0.0
25/06:00pm 15.7 12.5 6.7 55 4.5 N 13 19 7 10 1014.6 1014.7 0.0
25/05:30pm 16.6 12.9 6.1 50 5.2 N 15 20 8 11 1014.4 1014.5 0.0
25/05:00pm 16.7 13.4 6.5 51 5.1 N 13 22 7 12 1014.2 1014.3 0.0
25/04:30pm 16.8 12.5 5.1 46 5.7 NNW 17 22 9 12 1014.1 1014.2 0.0
25/04:00pm 17.1 13.5 6.6 50 5.2 NNW 15 20 8 11 1014.1 1014.2 0.0
25/03:30pm 17.1 13.8 6.3 49 5.4 NNW 13 20 7 11 1014.2 1014.3 0.0
25/03:00pm 16.4 12.3 6.0 50 5.1 NNW 17 24 9 13 1014.5 1014.6 0.0
25/02:30pm 16.3 12.4 7.0 54 4.7 NNW 17 24 9 13 1015.1 1015.2 0.0
25/02:00pm 16.2 11.9 6.9 54 4.6 NW 19 26 10 14 1015.1 1015.2 0.0
25/01:30pm 16.0 11.9 7.7 58 4.2 NNW 19 26 10 14 1015.6 1015.6 0.0
25/01:00pm 15.2 11.0 7.3 59 3.9 NW 19 30 10 16 1016.1 1016.2 0.0
25/12:30pm 14.3 9.7 6.6 60 3.8 NNW 20 28 11 15 1016.2 1016.3 0.0
25/12:00pm 14.0 9.3 6.1 59 3.8 NW 20 28 11 15 1016.7 1016.8 0.0
25/11:30am 13.6 9.0 6.5 62 3.5 NW 20 28 11 15 1016.8 1016.9 0.0
25/11:00am 13.3 9.7 6.6 64 3.3 NNW 15 22 8 12 1016.4 1016.5 0.0

Other formats

Comma delimited format used in spreadsheet applications
http://www.bom.gov.au/fwo/IDV60801/IDV60801.94836.axf

JavaScript Object Notation format (JSON) in row-major order
http://www.bom.gov.au/fwo/IDV60801/IDV60801.94836.json

Data quality

Most of these data are generated automatically and are frequently updated. Quality checks on data are not normally performed. It is possible for incorrect values to appear. Refer to information at About Latest Weather Observations and please check the disclaimer before using these data.